Time;durP1;ratioP1;P1;durP2;ratioP2;P2;SDS_P1;SDS_P2;PMS_P1;PMS_P2;Temp;Humidity;BMP_temperature;BMP_pressure;BME280_temperature;BME280_humidity;BME280_pressure;Samples;Min_cycle;Max_cycle;Signal;HPM_P1;HPM_P2
2022/03/07 00:01:35;;;;;;;38.97;22.15;;;;;;;;;;5013469;28;20115;-56
2022/03/07 00:04:02;;;;;;;41.72;24.48;;;;;;;;;;5004482;28;20038;-53
2022/03/07 00:06:28;;;;;;;50.95;27.25;;;;;;;;;;4995689;28;20033;-53
2022/03/07 00:08:55;;;;;;;49.60;27.80;;;;;;;;;;4996207;28;20026;-55
2022/03/07 00:11:21;;;;;;;49.80;27.00;;;;;;;;;;4996242;28;20418;-55
2022/03/07 00:13:48;;;;;;;54.60;30.45;;;;;;;;;;5001669;28;20038;-53
2022/03/07 00:16:14;;;;;;;54.78;30.70;;;;;;;;;;5015162;28;20433;-56
2022/03/07 00:18:41;;;;;;;55.35;28.50;;;;;;;;;;5011892;28;20100;-55
2022/03/07 00:21:08;;;;;;;53.28;29.38;;;;;;;;;;4995722;28;20113;-56
2022/03/07 00:23:34;;;;;;;54.17;29.02;;;;;;;;;;5000875;28;20030;-56
2022/03/07 00:26:00;;;;;;;46.50;24.95;;;;;;;;;;4995116;28;20030;-53
2022/03/07 00:28:26;;;;;;;36.92;23.10;;;;;;;;;;4995764;28;20025;-51
2022/03/07 00:30:53;;;;;;;42.35;23.83;;;;;;;;;;5010041;28;20022;-54
2022/03/07 00:33:19;;;;;;;39.75;22.95;;;;;;;;;;5014837;28;20026;-53
2022/03/07 00:35:45;;;;;;;35.80;21.35;;;;;;;;;;5015091;28;20076;-53
2022/03/07 00:38:11;;;;;;;34.90;20.20;;;;;;;;;;5015411;28;20080;-51
2022/03/07 00:40:37;;;;;;;34.97;20.33;;;;;;;;;;5009766;28;20459;-52
2022/03/07 00:43:07;;;;;;;36.85;20.13;;;;;;;;;;4995109;28;20133;-52
2022/03/07 00:45:34;;;;;;;33.78;20.67;;;;;;;;;;5004913;28;20024;-52
2022/03/07 00:48:00;;;;;;;39.45;20.95;;;;;;;;;;5003289;28;20021;-55
2022/03/07 00:50:26;;;;;;;31.63;19.05;;;;;;;;;;5014773;28;20045;-54
2022/03/07 00:52:52;;;;;;;30.50;18.33;;;;;;;;;;5014639;28;20397;-55
2022/03/07 00:55:18;;;;;;;32.28;18.48;;;;;;;;;;5014351;28;20101;-51
2022/03/07 00:57:45;;;;;;;31.85;19.42;;;;;;;;;;5014699;28;20069;-53
2022/03/07 01:00:11;;;;;;;34.42;19.85;;;;;;;;;;5013611;28;20026;-53
2022/03/07 01:02:38;;;;;;;31.83;19.70;;;;;;;;;;4994279;28;20022;-53
2022/03/07 01:05:05;;;;;;;30.83;18.70;;;;;;;;;;5003379;28;20517;-51
2022/03/07 01:07:31;;;;;;;37.53;21.73;;;;;;;;;;5000825;28;20054;-53
2022/03/07 01:09:57;;;;;;;41.95;23.30;;;;;;;;;;4999261;28;20030;-55
2022/03/07 01:12:24;;;;;;;41.45;23.63;;;;;;;;;;4995132;28;20031;-53
2022/03/07 01:14:50;;;;;;;41.63;24.25;;;;;;;;;;5008286;28;20021;-53
2022/03/07 01:17:16;;;;;;;35.40;20.48;;;;;;;;;;5014386;28;20112;-56
2022/03/07 01:19:42;;;;;;;44.85;23.73;;;;;;;;;;5014368;28;20029;-60
2022/03/07 01:22:08;;;;;;;34.63;21.33;;;;;;;;;;5012926;28;20108;-52
2022/03/07 01:24:36;;;;;;;32.22;19.90;;;;;;;;;;5000211;28;20046;-55
2022/03/07 01:27:02;;;;;;;34.10;18.63;;;;;;;;;;4994602;28;20041;-56
2022/03/07 01:29:29;;;;;;;34.30;20.02;;;;;;;;;;4994301;28;20026;-55
2022/03/07 01:31:55;;;;;;;33.42;19.63;;;;;;;;;;4994598;28;20371;-59
2022/03/07 01:34:21;;;;;;;32.75;20.25;;;;;;;;;;4994594;28;20031;-56
2022/03/07 01:36:47;;;;;;;37.63;21.83;;;;;;;;;;4994215;28;20402;-54
2022/03/07 01:39:13;;;;;;;36.67;20.88;;;;;;;;;;4994438;28;20022;-55
2022/03/07 01:41:39;;;;;;;34.28;20.38;;;;;;;;;;4994180;28;20050;-54
2022/03/07 01:44:15;;;;;;;38.20;22.20;;;;;;;;;;4998082;28;20047;-53
2022/03/07 01:46:41;;;;;;;35.92;21.60;;;;;;;;;;5006018;28;20030;-56
2022/03/07 01:49:08;;;;;;;35.85;20.27;;;;;;;;;;4994316;28;20031;-52
2022/03/07 01:51:34;;;;;;;36.33;20.73;;;;;;;;;;4997326;28;20106;-53
2022/03/07 01:54:00;;;;;;;36.70;22.05;;;;;;;;;;5013913;28;20041;-53
2022/03/07 01:56:26;;;;;;;35.05;20.70;;;;;;;;;;5005007;28;20038;-53
2022/03/07 01:58:52;;;;;;;39.90;22.67;;;;;;;;;;5011559;28;20419;-53
2022/03/07 02:01:18;;;;;;;36.33;20.98;;;;;;;;;;5013844;28;20478;-55
2022/03/07 02:03:45;;;;;;;39.13;22.15;;;;;;;;;;5017520;28;20451;-57
2022/03/07 02:06:11;;;;;;;39.92;23.48;;;;;;;;;;5002899;28;20467;-57
2022/03/07 02:08:37;;;;;;;41.70;23.60;;;;;;;;;;5015610;28;20026;-52
2022/03/07 02:11:03;;;;;;;41.08;23.67;;;;;;;;;;5017561;28;20028;-54
2022/03/07 02:13:30;;;;;;;39.97;23.25;;;;;;;;;;4999210;28;20386;-58
2022/03/07 02:15:57;;;;;;;43.72;25.60;;;;;;;;;;5005636;28;20030;-54
2022/03/07 02:18:23;;;;;;;46.53;27.67;;;;;;;;;;5017123;28;20108;-56
2022/03/07 02:20:54;;;;;;;46.80;26.50;;;;;;;;;;5017351;28;20032;-54
2022/03/07 02:23:20;;;;;;;49.25;28.48;;;;;;;;;;5008362;28;20084;-52
2022/03/07 02:25:47;;;;;;;51.58;29.02;;;;;;;;;;4997416;28;20023;-51
2022/03/07 02:28:15;;;;;;;59.97;34.45;;;;;;;;;;4997421;28;20031;-54
2022/03/07 02:30:41;;;;;;;51.72;27.95;;;;;;;;;;5009184;28;20378;-53
2022/03/07 02:33:10;;;;;;;59.53;33.67;;;;;;;;;;5016773;28;20038;-50
2022/03/07 02:35:37;;;;;;;61.03;33.28;;;;;;;;;;5016955;28;20030;-54
2022/03/07 02:38:03;;;;;;;90.20;45.38;;;;;;;;;;5016714;28;20489;-54
2022/03/07 02:40:29;;;;;;;74.05;40.15;;;;;;;;;;5017587;28;20033;-53
2022/03/07 02:42:55;;;;;;;60.65;34.25;;;;;;;;;;5016643;28;20056;-56
2022/03/07 02:45:21;;;;;;;69.35;36.65;;;;;;;;;;5016834;28;20036;-54
2022/03/07 02:47:47;;;;;;;53.95;30.38;;;;;;;;;;5016918;28;20494;-50
2022/03/07 02:50:13;;;;;;;70.95;37.17;;;;;;;;;;5011027;28;20034;-53
2022/03/07 02:52:40;;;;;;;93.90;46.95;;;;;;;;;;4997694;28;20029;-56
2022/03/07 02:55:06;;;;;;;101.25;51.78;;;;;;;;;;5001955;28;20106;-55
2022/03/07 02:57:32;;;;;;;89.63;46.08;;;;;;;;;;4997565;28;20032;-56
2022/03/07 02:59:58;;;;;;;86.40;43.47;;;;;;;;;;4997161;28;20022;-53
2022/03/07 03:02:24;;;;;;;80.22;41.15;;;;;;;;;;5009615;28;20046;-53
2022/03/07 03:04:51;;;;;;;67.15;36.35;;;;;;;;;;5012437;28;20109;-59
2022/03/07 03:07:17;;;;;;;63.00;32.10;;;;;;;;;;5003328;28;20035;-49
2022/03/07 03:09:45;;;;;;;55.28;30.83;;;;;;;;;;4998238;28;20383;-56
2022/03/07 03:12:11;;;;;;;82.43;40.50;;;;;;;;;;5009470;28;20032;-56
2022/03/07 03:14:39;;;;;;;58.40;31.70;;;;;;;;;;4995055;28;20055;-56
2022/03/07 03:17:05;;;;;;;105.32;50.72;;;;;;;;;;4996942;28;20077;-53
2022/03/07 03:19:31;;;;;;;56.58;31.15;;;;;;;;;;5016171;28;20026;-51
2022/03/07 03:21:57;;;;;;;125.22;56.28;;;;;;;;;;5008827;28;20041;-52
2022/03/07 03:24:23;;;;;;;126.10;59.28;;;;;;;;;;5001017;28;20035;-53
2022/03/07 03:26:49;;;;;;;121.47;54.58;;;;;;;;;;4996774;28;20031;-56
2022/03/07 03:29:17;;;;;;;102.47;46.33;;;;;;;;;;4996486;28;20030;-55
2022/03/07 03:31:43;;;;;;;69.80;35.25;;;;;;;;;;4996681;28;20085;-53
2022/03/07 03:34:10;;;;;;;59.70;30.00;;;;;;;;;;4996091;28;20027;-54
2022/03/07 03:36:36;;;;;;;96.90;46.63;;;;;;;;;;4996336;28;20025;-55
2022/03/07 03:39:03;;;;;;;91.75;44.95;;;;;;;;;;5002521;28;20045;-56
2022/03/07 03:41:29;;;;;;;76.25;39.38;;;;;;;;;;4996178;28;20056;-54
2022/03/07 03:43:55;;;;;;;54.20;28.55;;;;;;;;;;4996856;28;20471;-55
2022/03/07 03:46:21;;;;;;;65.38;31.58;;;;;;;;;;4996700;28;20035;-53
2022/03/07 03:48:47;;;;;;;45.20;26.38;;;;;;;;;;4996092;28;20022;-57
2022/03/07 03:51:13;;;;;;;43.50;23.75;;;;;;;;;;4996338;28;20033;-56
2022/03/07 03:53:39;;;;;;;46.92;25.73;;;;;;;;;;4996324;28;20052;-57
2022/03/07 03:56:06;;;;;;;53.03;26.88;;;;;;;;;;5006087;28;20448;-54
2022/03/07 03:58:32;;;;;;;54.42;27.08;;;;;;;;;;5009269;28;20029;-56
2022/03/07 04:00:58;;;;;;;51.67;26.77;;;;;;;;;;4995917;28;20029;-54
2022/03/07 04:03:26;;;;;;;74.00;34.28;;;;;;;;;;5000466;28;20112;-55
2022/03/07 04:05:53;;;;;;;59.45;29.35;;;;;;;;;;5015550;28;20025;-52
2022/03/07 04:08:19;;;;;;;65.30;30.33;;;;;;;;;;5015633;28;20030;-52
2022/03/07 04:10:46;;;;;;;42.60;24.00;;;;;;;;;;5014999;28;20036;-52
2022/03/07 04:13:13;;;;;;;43.95;24.13;;;;;;;;;;5015632;28;20033;-53
2022/03/07 04:15:39;;;;;;;41.42;22.55;;;;;;;;;;5015465;28;20029;-53
2022/03/07 04:18:06;;;;;;;36.78;20.63;;;;;;;;;;5015065;28;20029;-52
2022/03/07 04:20:32;;;;;;;38.78;21.75;;;;;;;;;;5015348;28;20136;-53
2022/03/07 04:22:59;;;;;;;37.88;21.13;;;;;;;;;;5011067;28;20374;-55
2022/03/07 04:25:25;;;;;;;46.78;23.13;;;;;;;;;;4995051;28;20030;-52
2022/03/07 04:27:51;;;;;;;43.17;22.95;;;;;;;;;;4995441;28;20019;-56
2022/03/07 04:30:17;;;;;;;40.05;22.77;;;;;;;;;;4995307;28;20371;-54
2022/03/07 04:32:44;;;;;;;36.45;21.45;;;;;;;;;;4995355;28;20066;-54
2022/03/07 04:35:11;;;;;;;38.25;21.55;;;;;;;;;;4995214;28;20037;-53
2022/03/07 04:37:41;;;;;;;37.10;22.02;;;;;;;;;;4993851;28;20376;-52
2022/03/07 04:40:14;;;;;;;36.60;21.75;;;;;;;;;;4995068;28;20077;-53
2022/03/07 04:42:42;;;;;;;40.00;22.23;;;;;;;;;;5004323;28;20046;-57
2022/03/07 04:45:09;;;;;;;39.85;21.25;;;;;;;;;;4994710;28;20501;-54
2022/03/07 04:47:35;;;;;;;40.88;21.38;;;;;;;;;;5007435;28;20145;-53
2022/03/07 04:50:01;;;;;;;43.15;23.00;;;;;;;;;;4994970;28;20022;-53
2022/03/07 04:52:27;;;;;;;38.65;21.42;;;;;;;;;;4997619;28;20022;-52
2022/03/07 04:54:53;;;;;;;40.45;21.73;;;;;;;;;;5014790;28;20391;-55
2022/03/07 04:57:19;;;;;;;41.20;22.30;;;;;;;;;;5014656;28;20022;-55
2022/03/07 04:59:45;;;;;;;43.53;22.75;;;;;;;;;;4996132;28;20026;-54
2022/03/07 05:02:13;;;;;;;38.17;22.60;;;;;;;;;;4995025;28;20027;-54
2022/03/07 05:04:42;;;;;;;37.63;21.85;;;;;;;;;;4994538;28;20030;-59
2022/03/07 05:07:09;;;;;;;39.58;21.67;;;;;;;;;;4993153;28;20428;-55
2022/03/07 05:09:35;;;;;;;39.20;21.98;;;;;;;;;;4993699;28;20050;-55
2022/03/07 05:12:01;;;;;;;37.58;20.80;;;;;;;;;;5001735;28;20394;-53
2022/03/07 05:14:27;;;;;;;40.20;22.58;;;;;;;;;;4995814;28;20426;-55
2022/03/07 05:16:54;;;;;;;39.28;21.80;;;;;;;;;;4993785;28;20029;-50
2022/03/07 05:19:20;;;;;;;39.72;22.27;;;;;;;;;;4993357;28;20023;-56
2022/03/07 05:21:46;;;;;;;36.40;21.75;;;;;;;;;;5011300;28;20030;-52
2022/03/07 05:24:12;;;;;;;36.10;20.70;;;;;;;;;;5000182;28;20499;-53
2022/03/07 05:26:38;;;;;;;41.40;21.85;;;;;;;;;;4994261;28;20031;-55
2022/03/07 05:29:06;;;;;;;39.05;22.85;;;;;;;;;;4990918;28;20118;-55
2022/03/07 05:31:32;;;;;;;41.80;23.70;;;;;;;;;;4976533;28;20022;-52
2022/03/07 05:33:58;;;;;;;38.83;22.83;;;;;;;;;;4998419;28;20030;-56
2022/03/07 05:36:25;;;;;;;38.10;21.95;;;;;;;;;;4993789;28;20415;-54
2022/03/07 05:38:51;;;;;;;35.08;21.33;;;;;;;;;;4997235;28;20048;-56
2022/03/07 05:41:17;;;;;;;41.83;23.83;;;;;;;;;;5012450;28;20026;-53
2022/03/07 05:43:43;;;;;;;46.35;25.00;;;;;;;;;;5008845;28;20035;-54
2022/03/07 05:46:09;;;;;;;41.53;24.85;;;;;;;;;;4994243;28;20038;-56
2022/03/07 05:48:36;;;;;;;47.78;26.58;;;;;;;;;;4993569;28;20486;-54
2022/03/07 05:51:02;;;;;;;45.70;26.25;;;;;;;;;;4980445;28;20031;-54
2022/03/07 05:53:28;;;;;;;39.92;24.13;;;;;;;;;;4995658;28;20030;-55
2022/03/07 05:55:54;;;;;;;43.85;24.17;;;;;;;;;;4993054;28;20018;-58
2022/03/07 05:58:20;;;;;;;49.38;28.02;;;;;;;;;;4994136;28;20026;-55
2022/03/07 06:00:46;;;;;;;43.55;25.15;;;;;;;;;;4994341;28;20394;-55
2022/03/07 06:03:12;;;;;;;44.80;25.92;;;;;;;;;;4996848;28;20429;-52
2022/03/07 06:05:39;;;;;;;42.70;24.42;;;;;;;;;;4990953;28;20027;-56
2022/03/07 06:08:05;;;;;;;43.17;25.27;;;;;;;;;;4983096;28;20030;-54
2022/03/07 06:10:31;;;;;;;48.65;26.73;;;;;;;;;;4992081;28;20023;-54
2022/03/07 06:12:58;;;;;;;47.80;28.00;;;;;;;;;;4985888;28;20076;-51
2022/03/07 06:15:24;;;;;;;47.88;26.30;;;;;;;;;;4982998;28;20025;-53
2022/03/07 06:17:51;;;;;;;44.83;26.67;;;;;;;;;;4984960;28;20033;-56
2022/03/07 06:20:18;;;;;;;43.30;24.17;;;;;;;;;;4982149;28;20379;-52
2022/03/07 06:22:44;;;;;;;37.92;22.67;;;;;;;;;;4990148;28;20046;-52
2022/03/07 06:25:10;;;;;;;42.65;24.00;;;;;;;;;;4984055;28;20033;-57
2022/03/07 06:27:36;;;;;;;39.55;23.50;;;;;;;;;;4984421;28;20391;-55
2022/03/07 06:30:03;;;;;;;37.30;22.55;;;;;;;;;;4989095;28;20050;-57
2022/03/07 06:32:29;;;;;;;37.17;21.75;;;;;;;;;;4984585;28;20038;-53
2022/03/07 06:34:55;;;;;;;31.58;19.75;;;;;;;;;;4985224;28;20041;-52
2022/03/07 06:37:23;;;;;;;35.42;21.70;;;;;;;;;;4986139;28;20015;-54
2022/03/07 06:39:49;;;;;;;35.67;21.63;;;;;;;;;;4982451;28;20022;-53
2022/03/07 06:42:15;;;;;;;33.28;19.95;;;;;;;;;;4994008;28;20047;-55
2022/03/07 06:44:41;;;;;;;35.72;21.85;;;;;;;;;;4993515;28;20359;-55
2022/03/07 06:47:08;;;;;;;38.65;22.75;;;;;;;;;;4993516;28;20467;-53
2022/03/07 06:49:34;;;;;;;40.65;24.08;;;;;;;;;;4996473;28;20068;-50
2022/03/07 06:52:01;;;;;;;45.83;27.02;;;;;;;;;;4994852;28;20037;-54
2022/03/07 06:54:27;;;;;;;47.83;27.23;;;;;;;;;;4995521;28;20030;-52
2022/03/07 06:56:53;;;;;;;48.92;28.10;;;;;;;;;;4996809;28;20023;-54
2022/03/07 06:59:19;;;;;;;49.05;28.30;;;;;;;;;;4996641;28;20030;-55
2022/03/07 07:01:46;;;;;;;53.08;28.77;;;;;;;;;;4996342;28;20030;-53
2022/03/07 07:04:12;;;;;;;60.25;32.67;;;;;;;;;;4986151;28;20031;-54
2022/03/07 07:06:38;;;;;;;62.10;33.10;;;;;;;;;;4984597;28;20029;-53
2022/03/07 07:09:05;;;;;;;68.47;36.17;;;;;;;;;;4984759;28;20384;-51
2022/03/07 07:11:31;;;;;;;76.70;40.60;;;;;;;;;;4985725;28;20015;-53
2022/03/07 07:13:57;;;;;;;66.90;36.97;;;;;;;;;;4986506;28;20531;-55
2022/03/07 07:16:23;;;;;;;75.32;37.55;;;;;;;;;;4984979;28;20014;-54
2022/03/07 07:18:49;;;;;;;90.90;43.38;;;;;;;;;;4985538;28;20375;-55
2022/03/07 07:21:16;;;;;;;102.70;46.72;;;;;;;;;;4986143;28;20022;-56
2022/03/07 07:23:42;;;;;;;95.78;44.72;;;;;;;;;;4984429;28;20033;-56
2022/03/07 07:26:08;;;;;;;83.65;40.03;;;;;;;;;;4985928;28;20026;-53
2022/03/07 07:28:34;;;;;;;141.82;58.72;;;;;;;;;;4986165;28;20097;-55
2022/03/07 07:31:00;;;;;;;77.57;38.45;;;;;;;;;;4984589;28;20460;-56
2022/03/07 07:33:26;;;;;;;114.00;50.03;;;;;;;;;;4985746;28;20026;-56
2022/03/07 07:35:53;;;;;;;100.95;44.88;;;;;;;;;;4994688;28;20022;-54
2022/03/07 07:38:21;;;;;;;106.60;47.30;;;;;;;;;;4996263;28;20042;-54
2022/03/07 07:40:47;;;;;;;109.85;49.13;;;;;;;;;;4995963;28;20034;-56
2022/03/07 07:43:14;;;;;;;102.85;44.72;;;;;;;;;;4996754;28;20101;-53
2022/03/07 07:45:40;;;;;;;83.93;38.80;;;;;;;;;;4996476;28;20031;-56
2022/03/07 07:48:06;;;;;;;79.55;37.72;;;;;;;;;;4995868;28;20023;-56
2022/03/07 07:50:32;;;;;;;67.88;33.65;;;;;;;;;;4996386;28;20026;-56
2022/03/07 07:52:58;;;;;;;53.25;28.65;;;;;;;;;;4996085;28;20109;-57
2022/03/07 07:55:24;;;;;;;58.58;30.65;;;;;;;;;;4996339;28;20022;-55
2022/03/07 07:57:51;;;;;;;47.55;25.17;;;;;;;;;;4995998;28;20027;-54
2022/03/07 08:00:20;;;;;;;38.95;23.08;;;;;;;;;;4995174;28;20545;-54
2022/03/07 08:02:50;;;;;;;34.47;19.60;;;;;;;;;;4996231;28;20022;-52
2022/03/07 08:05:17;;;;;;;37.50;20.83;;;;;;;;;;4996062;28;20378;-53
2022/03/07 08:07:43;;;;;;;33.17;20.92;;;;;;;;;;4995723;28;20109;-51
2022/03/07 08:10:10;;;;;;;32.47;20.05;;;;;;;;;;4996265;28;20102;-58
2022/03/07 08:12:36;;;;;;;30.73;18.48;;;;;;;;;;4995958;28;20112;-55
2022/03/07 08:15:05;;;;;;;31.95;18.77;;;;;;;;;;4986150;28;20039;-56
2022/03/07 08:17:31;;;;;;;34.88;19.88;;;;;;;;;;4984026;28;20102;-54
2022/03/07 08:19:58;;;;;;;28.63;17.58;;;;;;;;;;4984950;28;20034;-56
2022/03/07 08:22:24;;;;;;;29.70;18.52;;;;;;;;;;4982942;28;20018;-54
2022/03/07 08:24:50;;;;;;;32.97;19.05;;;;;;;;;;4975959;28;20026;-53
2022/03/07 08:27:16;;;;;;;31.67;19.02;;;;;;;;;;4976199;28;20100;-52
2022/03/07 08:29:42;;;;;;;30.58;18.58;;;;;;;;;;4975963;28;20364;-55
2022/03/07 08:32:09;;;;;;;27.35;17.77;;;;;;;;;;4975896;28;20493;-54
2022/03/07 08:34:35;;;;;;;28.55;17.85;;;;;;;;;;4976120;28;20035;-56
2022/03/07 08:37:01;;;;;;;28.15;17.25;;;;;;;;;;4975492;28;20030;-55
2022/03/07 08:39:28;;;;;;;26.67;16.65;;;;;;;;;;4976032;28;20031;-49
2022/03/07 08:41:54;;;;;;;24.80;15.80;;;;;;;;;;4975605;28;20050;-55
2022/03/07 08:44:20;;;;;;;29.55;17.55;;;;;;;;;;4976182;28;20038;-53
2022/03/07 08:46:46;;;;;;;29.63;17.90;;;;;;;;;;4976154;28;20030;-57
2022/03/07 08:49:12;;;;;;;25.35;15.65;;;;;;;;;;4975478;28;20460;-54
2022/03/07 08:51:41;;;;;;;27.33;16.67;;;;;;;;;;4975521;28;20030;-52
2022/03/07 08:54:07;;;;;;;23.40;15.40;;;;;;;;;;4975729;28;20476;-51
2022/03/07 08:56:33;;;;;;;29.27;17.23;;;;;;;;;;4975182;28;20026;-52
2022/03/07 08:59:00;;;;;;;31.33;17.40;;;;;;;;;;4975349;28;20023;-54
2022/03/07 09:01:27;;;;;;;24.73;16.05;;;;;;;;;;4975925;28;20464;-50
2022/03/07 09:03:53;;;;;;;28.88;17.33;;;;;;;;;;4975247;28;20059;-46
2022/03/07 09:06:19;;;;;;;23.38;15.20;;;;;;;;;;4975277;28;20031;-48
2022/03/07 09:08:45;;;;;;;31.98;17.92;;;;;;;;;;4975175;28;20023;-49
2022/03/07 09:11:11;;;;;;;27.20;16.17;;;;;;;;;;4975129;28;20085;-47
2022/03/07 09:13:37;;;;;;;26.00;16.35;;;;;;;;;;4975764;28;20026;-47
2022/03/07 09:16:04;;;;;;;26.85;17.40;;;;;;;;;;4975283;28;20054;-46
2022/03/07 09:18:30;;;;;;;26.38;15.73;;;;;;;;;;4974681;28;20027;-51
2022/03/07 09:20:56;;;;;;;25.00;15.25;;;;;;;;;;4975311;28;20030;-48
2022/03/07 09:23:23;;;;;;;23.63;16.00;;;;;;;;;;4975128;28;20034;-47
2022/03/07 09:25:49;;;;;;;24.67;14.77;;;;;;;;;;4974901;28;20026;-51
2022/03/07 09:28:15;;;;;;;22.88;14.80;;;;;;;;;;4975486;28;20102;-47
2022/03/07 09:30:41;;;;;;;23.38;14.32;;;;;;;;;;4974723;28;20029;-51
2022/03/07 09:33:07;;;;;;;21.45;14.13;;;;;;;;;;4974858;28;20023;-49
2022/03/07 09:35:34;;;;;;;24.15;15.15;;;;;;;;;;4975144;28;20038;-48
2022/03/07 09:38:00;;;;;;;23.98;16.13;;;;;;;;;;4974916;28;20030;-48
2022/03/07 09:40:26;;;;;;;24.73;16.42;;;;;;;;;;4975066;28;20027;-48
2022/03/07 09:42:53;;;;;;;24.95;15.40;;;;;;;;;;4975211;28;20133;-49
2022/03/07 09:45:19;;;;;;;21.60;13.70;;;;;;;;;;4974656;28;20033;-52
2022/03/07 09:47:48;;;;;;;23.23;14.50;;;;;;;;;;4975261;28;20031;-52
2022/03/07 09:50:15;;;;;;;25.00;16.10;;;;;;;;;;4974623;28;20031;-49
2022/03/07 09:52:42;;;;;;;23.02;14.98;;;;;;;;;;4974076;28;20018;-47
2022/03/07 09:55:11;;;;;;;39.38;22.67;;;;;;;;;;4973198;28;20037;-48
2022/03/07 09:57:37;;;;;;;29.25;17.08;;;;;;;;;;4973138;28;20023;-50
2022/03/07 10:00:04;;;;;;;24.70;15.40;;;;;;;;;;4973050;28;20543;-52
2022/03/07 10:02:30;;;;;;;32.75;20.00;;;;;;;;;;4974251;28;20490;-50
2022/03/07 10:05:00;;;;;;;24.58;16.30;;;;;;;;;;4974638;28;20030;-51
2022/03/07 10:07:26;;;;;;;23.65;14.90;;;;;;;;;;4974081;28;20035;-49
2022/03/07 10:10:02;;;;;;;29.45;16.80;;;;;;;;;;4974796;28;20487;-50
2022/03/07 10:12:28;;;;;;;23.90;15.43;;;;;;;;;;4974804;28;20431;-47
2022/03/07 10:14:54;;;;;;;27.50;16.08;;;;;;;;;;4974475;28;20027;-47
2022/03/07 10:17:26;;;;;;;22.08;14.07;;;;;;;;;;4975256;28;20037;-48
2022/03/07 10:19:53;;;;;;;25.10;16.40;;;;;;;;;;4974015;28;20023;-49
2022/03/07 10:22:23;;;;;;;21.77;13.60;;;;;;;;;;4974615;28;20027;-50
2022/03/07 10:25:02;;;;;;;22.03;14.43;;;;;;;;;;4978394;28;20494;-50
2022/03/07 10:27:34;;;;;;;18.48;12.48;;;;;;;;;;4978167;28;20031;-46
2022/03/07 10:30:00;;;;;;;19.20;12.48;;;;;;;;;;4978358;28;20030;-49
2022/03/07 10:32:27;;;;;;;16.90;12.05;;;;;;;;;;4978452;28;20411;-49
2022/03/07 10:34:53;;;;;;;20.85;13.60;;;;;;;;;;4977974;28;20081;-48
2022/03/07 10:37:19;;;;;;;55.67;30.65;;;;;;;;;;4978311;28;20014;-50
2022/03/07 10:39:46;;;;;;;19.15;13.13;;;;;;;;;;4978103;28;20248;-45
2022/03/07 10:42:16;;;;;;;20.65;12.82;;;;;;;;;;4977636;28;20544;-52
2022/03/07 10:44:43;;;;;;;17.33;12.60;;;;;;;;;;4977866;28;20486;-53
2022/03/07 10:47:10;;;;;;;19.33;12.88;;;;;;;;;;4977855;28;20480;-53
2022/03/07 10:49:46;;;;;;;20.80;14.98;;;;;;;;;;4977847;28;20357;-50
2022/03/07 10:52:12;;;;;;;19.35;13.05;;;;;;;;;;4977773;28;20023;-55
2022/03/07 10:54:38;;;;;;;23.17;14.30;;;;;;;;;;4977703;28;20031;-52
2022/03/07 10:57:07;;;;;;;15.80;11.07;;;;;;;;;;4977560;28;20344;-52
2022/03/07 10:59:35;;;;;;;16.55;11.52;;;;;;;;;;4977834;28;20468;-50
2022/03/07 11:02:03;;;;;;;19.13;13.38;;;;;;;;;;4977397;28;20027;-49
2022/03/07 11:04:30;;;;;;;23.75;14.77;;;;;;;;;;4978442;28;20038;-53
2022/03/07 11:06:56;;;;;;;21.02;13.93;;;;;;;;;;4977703;28;20034;-51
2022/03/07 11:09:22;;;;;;;20.88;13.63;;;;;;;;;;4977127;28;20379;-55
2022/03/07 11:11:50;;;;;;;18.67;12.85;;;;;;;;;;4977414;28;20038;-49
2022/03/07 11:14:17;;;;;;;22.73;13.98;;;;;;;;;;4977381;28;20035;-53
2022/03/07 11:16:49;;;;;;;23.77;13.35;;;;;;;;;;4977246;28;20042;-48
2022/03/07 11:19:18;;;;;;;22.88;14.75;;;;;;;;;;4978303;28;20441;-54
2022/03/07 11:21:44;;;;;;;18.80;12.63;;;;;;;;;;4977173;28;20025;-50
2022/03/07 11:24:10;;;;;;;17.52;12.30;;;;;;;;;;4977042;28;20041;-49
2022/03/07 11:26:41;;;;;;;19.70;13.35;;;;;;;;;;4977394;28;20019;-48
2022/03/07 11:29:08;;;;;;;18.90;11.93;;;;;;;;;;4981235;28;20027;-48
2022/03/07 11:31:34;;;;;;;17.77;12.10;;;;;;;;;;4984328;28;20027;-51
2022/03/07 11:34:06;;;;;;;17.92;12.05;;;;;;;;;;4984903;28;20495;-49
2022/03/07 11:36:32;;;;;;;19.20;13.23;;;;;;;;;;4987509;28;20042;-51
2022/03/07 11:38:59;;;;;;;19.70;13.73;;;;;;;;;;4984719;28;20030;-52
2022/03/07 11:41:26;;;;;;;20.92;13.90;;;;;;;;;;4985829;28;20129;-51
2022/03/07 11:43:52;;;;;;;23.85;15.27;;;;;;;;;;4985502;28;20030;-53
2022/03/07 11:46:32;;;;;;;20.75;13.73;;;;;;;;;;4987117;28;20407;-49
2022/03/07 11:48:58;;;;;;;22.77;15.48;;;;;;;;;;4987220;28;20076;-50
2022/03/07 11:51:25;;;;;;;20.98;14.73;;;;;;;;;;4985249;28;20019;-54
2022/03/07 11:53:52;;;;;;;23.83;14.73;;;;;;;;;;4986091;28;20083;-52
2022/03/07 11:56:19;;;;;;;20.33;14.05;;;;;;;;;;4985918;28;20378;-44
2022/03/07 11:58:49;;;;;;;25.92;15.93;;;;;;;;;;4985257;28;20054;-54
2022/03/07 12:01:15;;;;;;;21.30;14.65;;;;;;;;;;4985485;28;20019;-52
2022/03/07 12:03:41;;;;;;;31.92;20.00;;;;;;;;;;4986669;28;20479;-52
2022/03/07 12:06:09;;;;;;;30.17;18.38;;;;;;;;;;4985196;28;20050;-54
2022/03/07 12:08:43;;;;;;;22.15;15.20;;;;;;;;;;4984975;28;20480;-52
2022/03/07 12:11:10;;;;;;;21.42;14.32;;;;;;;;;;4984641;28;20371;-54
2022/03/07 12:13:46;;;;;;;28.38;17.40;;;;;;;;;;4984404;28;20089;-49
2022/03/07 12:16:12;;;;;;;28.80;17.15;;;;;;;;;;4988295;28;20536;-49
2022/03/07 12:18:38;;;;;;;31.80;20.45;;;;;;;;;;4983531;28;20436;-48
2022/03/07 12:21:05;;;;;;;33.22;19.23;;;;;;;;;;4985225;28;20010;-50
2022/03/07 12:23:34;;;;;;;32.92;20.15;;;;;;;;;;4984915;28;20057;-47
2022/03/07 12:26:01;;;;;;;28.23;17.13;;;;;;;;;;4986753;28;20065;-49
2022/03/07 12:28:28;;;;;;;29.73;19.00;;;;;;;;;;4984988;28;20025;-48
2022/03/07 12:30:55;;;;;;;31.00;19.77;;;;;;;;;;4984863;28;20475;-53
2022/03/07 12:33:21;;;;;;;34.40;22.02;;;;;;;;;;4983846;28;20031;-58
2022/03/07 12:35:47;;;;;;;33.70;21.02;;;;;;;;;;4985392;28;20139;-53
2022/03/07 12:38:14;;;;;;;26.33;16.63;;;;;;;;;;4985973;28;20077;-51
2022/03/07 12:40:40;;;;;;;33.22;18.08;;;;;;;;;;4983909;28;20029;-50
2022/03/07 12:43:08;;;;;;;28.88;19.98;;;;;;;;;;4985365;28;20052;-62
2022/03/07 12:45:44;;;;;;;28.90;19.85;;;;;;;;;;4985315;28;20037;-51
2022/03/07 12:48:10;;;;;;;29.48;18.05;;;;;;;;;;4984996;28;20018;-47
2022/03/07 12:50:36;;;;;;;31.90;18.58;;;;;;;;;;4983652;28;20024;-50
2022/03/07 12:53:02;;;;;;;26.15;17.60;;;;;;;;;;4983829;28;20049;-50
2022/03/07 12:55:28;;;;;;;23.75;14.98;;;;;;;;;;4984846;28;20034;-48
2022/03/07 12:57:56;;;;;;;26.02;17.17;;;;;;;;;;4985552;28;20480;-50
2022/03/07 13:00:22;;;;;;;27.50;17.13;;;;;;;;;;4983642;28;20019;-48
2022/03/07 13:02:54;;;;;;;26.17;16.73;;;;;;;;;;4984360;28;20036;-47
2022/03/07 13:05:23;;;;;;;26.15;16.48;;;;;;;;;;4985848;28;20022;-45
2022/03/07 13:07:59;;;;;;;32.38;18.35;;;;;;;;;;4984194;28;20023;-53
2022/03/07 13:10:26;;;;;;;30.73;18.45;;;;;;;;;;4983830;28;20468;-52
2022/03/07 13:12:57;;;;;;;53.95;25.92;;;;;;;;;;4984379;28;20061;-51
2022/03/07 13:15:24;;;;;;;35.03;19.53;;;;;;;;;;4983697;28;20029;-50
2022/03/07 13:18:01;;;;;;;32.47;20.02;;;;;;;;;;4984247;28;20023;-51
2022/03/07 13:20:27;;;;;;;35.42;20.88;;;;;;;;;;4984156;28;20066;-49
2022/03/07 13:22:53;;;;;;;36.85;21.30;;;;;;;;;;4983820;28;20029;-51
2022/03/07 13:25:19;;;;;;;33.00;20.80;;;;;;;;;;4984769;28;20022;-49
2022/03/07 13:27:47;;;;;;;31.75;20.25;;;;;;;;;;4983941;28;20027;-49
2022/03/07 13:30:13;;;;;;;29.95;18.77;;;;;;;;;;4983288;28;20014;-51
2022/03/07 13:32:43;;;;;;;28.98;18.58;;;;;;;;;;4985388;28;20084;-53
2022/03/07 13:35:23;;;;;;;31.75;21.05;;;;;;;;;;4984752;28;20022;-49
2022/03/07 13:37:49;;;;;;;32.80;21.05;;;;;;;;;;4983758;28;20018;-49
2022/03/07 13:40:17;;;;;;;30.17;19.33;;;;;;;;;;4982882;28;20033;-51
2022/03/07 13:42:44;;;;;;;32.97;20.15;;;;;;;;;;4981082;28;20038;-49
2022/03/07 13:45:14;;;;;;;34.88;20.75;;;;;;;;;;4982857;28;20034;-50
2022/03/07 13:47:40;;;;;;;31.25;19.65;;;;;;;;;;4981782;28;20022;-52
2022/03/07 13:50:08;;;;;;;31.60;19.27;;;;;;;;;;4983159;28;20169;-51
2022/03/07 13:52:35;;;;;;;31.40;19.08;;;;;;;;;;4984165;28;20368;-50
2022/03/07 13:55:03;;;;;;;35.55;21.73;;;;;;;;;;4982884;28;20019;-52
2022/03/07 13:57:52;;;;;;;35.72;21.75;;;;;;;;;;4982951;28;20792;-51
2022/03/07 14:00:18;;;;;;;35.53;21.73;;;;;;;;;;4973267;28;20038;-53
2022/03/07 14:02:46;;;;;;;38.05;23.25;;;;;;;;;;4983025;28;20337;-54
2022/03/07 14:05:14;;;;;;;41.65;23.77;;;;;;;;;;4983219;28;20414;-53
2022/03/07 14:07:41;;;;;;;41.05;23.60;;;;;;;;;;4984894;28;20507;-54
2022/03/07 14:10:13;;;;;;;35.97;22.63;;;;;;;;;;4983349;28;20023;-53
2022/03/07 14:12:39;;;;;;;37.67;22.50;;;;;;;;;;4982683;28;20062;-48
2022/03/07 14:15:06;;;;;;;38.17;21.92;;;;;;;;;;4983283;28;20034;-51